createdAt,value
2018-11-25T00:00:31.380Z,30.27
2018-11-25T00:02:35.706Z,33.67
2018-11-25T00:04:40.041Z,32.87
2018-11-25T00:06:44.415Z,31.90
2018-11-25T00:08:48.839Z,32.67
2018-11-25T00:10:53.132Z,31.30
2018-11-25T00:12:57.744Z,30.00
2018-11-25T00:15:02.089Z,31.00
2018-11-25T00:17:06.804Z,31.10
2018-11-25T00:19:11.253Z,31.40
2018-11-25T00:21:15.656Z,31.33
2018-11-25T00:23:19.871Z,30.10
2018-11-25T00:25:24.182Z,29.13
2018-11-25T00:27:28.583Z,29.90
2018-11-25T00:29:32.828Z,27.70
2018-11-25T00:31:37.027Z,28.27
2018-11-25T00:33:41.487Z,27.70
2018-11-25T00:35:45.986Z,29.83
2018-11-25T00:37:50.260Z,30.53
2018-11-25T00:39:54.726Z,32.03
2018-11-25T00:41:59.133Z,30.80
2018-11-25T00:44:03.643Z,29.47
2018-11-25T00:46:07.903Z,33.80
2018-11-25T00:48:12.199Z,32.47
2018-11-25T00:50:16.733Z,30.90
2018-11-25T00:52:21.138Z,32.30
2018-11-25T00:54:25.641Z,31.57
2018-11-25T00:56:30.026Z,32.97
2018-11-25T00:58:34.239Z,32.17
2018-11-25T01:00:38.553Z,30.20
2018-11-25T01:02:42.963Z,30.37
2018-11-25T01:04:47.068Z,32.50
2018-11-25T01:06:51.290Z,32.83
2018-11-25T01:08:55.798Z,31.40
2018-11-25T01:11:00.031Z,28.90
2018-11-25T01:13:04.472Z,31.33
2018-11-25T01:15:10.842Z,30.07
2018-11-25T01:17:15.323Z,31.50
2018-11-25T01:19:19.546Z,29.60
2018-11-25T01:21:24.075Z,30.10
2018-11-25T01:23:28.661Z,31.50
2018-11-25T01:25:33.072Z,29.43
2018-11-25T01:27:37.613Z,30.13
2018-11-25T01:29:41.841Z,30.47
2018-11-25T01:31:46.045Z,31.53
2018-11-25T01:33:50.350Z,28.20
2018-11-25T01:35:54.791Z,28.97
2018-11-25T01:37:59.485Z,31.30
2018-11-25T01:40:04.022Z,29.20
2018-11-25T01:42:08.430Z,33.67
2018-11-25T01:44:12.751Z,28.00
2018-11-25T01:46:16.898Z,30.90
2018-11-25T01:48:21.285Z,27.87
2018-11-25T01:50:25.600Z,28.77
2018-11-25T01:52:30.107Z,30.17
2018-11-25T01:54:34.500Z,29.00
2018-11-25T01:56:38.801Z,31.10
2018-11-25T01:58:43.053Z,27.77
2018-11-25T02:00:47.693Z,29.10
2018-11-25T02:02:51.892Z,31.83
2018-11-25T02:04:56.081Z,30.37
2018-11-25T02:07:00.550Z,29.03
2018-11-25T02:09:06.275Z,31.20
2018-11-25T02:11:10.697Z,31.30
2018-11-25T02:13:15.006Z,27.30
2018-11-25T02:15:19.516Z,27.80
2018-11-25T02:17:23.928Z,29.93
2018-11-25T02:19:28.241Z,27.60
2018-11-25T02:21:32.597Z,28.13
2018-11-25T02:23:36.988Z,29.53
2018-11-25T02:25:41.345Z,28.40
2018-11-25T02:27:45.879Z,29.40
2018-11-25T02:29:50.236Z,30.23
2018-11-25T02:31:54.575Z,29.03
2018-11-25T02:33:58.959Z,29.23
2018-11-25T02:36:03.403Z,29.43
2018-11-25T02:38:07.887Z,27.97
2018-11-25T02:40:14.128Z,29.10
2018-11-25T02:42:18.596Z,31.83
2018-11-25T02:44:22.875Z,29.93
2018-11-25T02:46:27.079Z,31.40
2018-11-25T02:48:31.338Z,30.57
2018-11-25T02:50:35.727Z,31.23
2018-11-25T02:52:40.146Z,31.93
2018-11-25T02:54:44.464Z,30.43
2018-11-25T02:56:48.771Z,30.80
2018-11-25T02:58:53.052Z,31.70
2018-11-25T03:00:57.521Z,28.90
2018-11-25T03:03:01.848Z,29.90
2018-11-25T03:05:07.028Z,29.67
2018-11-25T03:07:11.285Z,29.37
2018-11-25T03:09:15.839Z,30.70
2018-11-25T03:11:20.219Z,28.90
2018-11-25T03:13:24.665Z,28.70
2018-11-25T03:15:29.349Z,29.77
2018-11-25T03:17:33.763Z,27.60
2018-11-25T03:19:38.283Z,27.27
2018-11-25T03:21:42.527Z,27.90
2018-11-25T03:23:47.830Z,26.50
2018-11-25T03:25:52.358Z,26.20
2018-11-25T03:27:56.988Z,27.60
2018-11-25T03:30:01.421Z,26.60
2018-11-25T03:32:06.338Z,27.30
2018-11-25T03:34:10.686Z,24.00
2018-11-25T03:36:15.059Z,25.53
2018-11-25T03:38:19.357Z,24.43
2018-11-25T03:40:23.557Z,22.73
2018-11-25T03:42:27.796Z,24.07
2018-11-25T03:44:32.078Z,22.73
2018-11-25T03:46:36.510Z,22.90
2018-11-25T03:48:40.926Z,22.23
2018-11-25T03:50:45.246Z,20.10
2018-11-25T03:52:49.655Z,20.70
2018-11-25T03:54:53.858Z,19.43
2018-11-25T03:56:58.051Z,21.83
2018-11-25T03:59:02.304Z,21.30
2018-11-25T04:01:07.252Z,20.77
2018-11-25T04:03:11.670Z,20.07
2018-11-25T04:05:17.113Z,21.43
2018-11-25T04:07:21.434Z,20.10
2018-11-25T04:09:25.824Z,21.10
2018-11-25T04:11:30.243Z,21.23
2018-11-25T04:13:34.557Z,21.10
2018-11-25T04:15:38.839Z,22.00
2018-11-25T04:17:43.217Z,19.80
2018-11-25T04:19:47.633Z,20.20
2018-11-25T04:21:51.912Z,18.83
2018-11-25T04:23:56.452Z,21.00
2018-11-25T04:26:00.722Z,22.77
2018-11-25T04:28:05.263Z,22.37
2018-11-25T04:30:14.923Z,20.33
2018-11-25T04:32:19.384Z,21.20
2018-11-25T04:34:23.618Z,20.90
2018-11-25T04:36:27.994Z,21.57
2018-11-25T04:38:32.515Z,21.03
2018-11-25T04:40:36.981Z,20.70
2018-11-25T04:42:41.416Z,21.23
2018-11-25T04:44:45.835Z,21.70
2018-11-25T04:46:50.274Z,21.57
2018-11-25T04:48:54.405Z,21.30
2018-11-25T04:50:58.875Z,19.67
2018-11-25T04:53:03.208Z,21.40
2018-11-25T04:55:07.869Z,21.43
2018-11-25T04:57:12.427Z,22.87
2018-11-25T04:59:16.648Z,21.30
2018-11-25T05:01:21.056Z,22.47
2018-11-25T05:03:25.411Z,23.27
2018-11-25T05:05:29.797Z,22.00
2018-11-25T05:07:34.195Z,21.70
2018-11-25T05:09:38.507Z,20.80
2018-11-25T05:11:42.855Z,22.20
2018-11-25T05:13:47.037Z,22.27
2018-11-25T05:15:51.392Z,22.73
2018-11-25T05:17:55.665Z,24.37
2018-11-25T05:19:59.964Z,22.67
2018-11-25T05:22:04.400Z,22.07
2018-11-25T05:24:08.833Z,21.77
2018-11-25T05:26:13.060Z,21.73
2018-11-25T05:28:17.319Z,25.20
2018-11-25T05:30:21.984Z,25.40
2018-11-25T05:32:26.200Z,25.70
2018-11-25T05:34:30.614Z,24.37
2018-11-25T05:36:35.046Z,23.30
2018-11-25T05:38:39.501Z,24.23
2018-11-25T05:40:43.844Z,27.23
2018-11-25T05:42:48.498Z,23.37
2018-11-25T05:44:53.011Z,23.83
2018-11-25T05:46:57.424Z,23.83
2018-11-25T05:49:01.636Z,23.17
2018-11-25T05:51:06.442Z,21.43
2018-11-25T05:53:10.766Z,21.90
2018-11-25T05:55:15.337Z,20.97
2018-11-25T05:57:19.834Z,21.33
2018-11-25T05:59:24.168Z,22.27
2018-11-25T06:01:28.688Z,19.37
2018-11-25T06:03:33.271Z,21.97
2018-11-25T06:05:37.806Z,18.77
2018-11-25T06:07:42.122Z,19.60
2018-11-25T06:09:46.615Z,20.33
2018-11-25T06:11:51.058Z,21.30
2018-11-25T06:13:55.359Z,20.80
2018-11-25T06:16:00.977Z,20.53
2018-11-25T06:18:05.406Z,19.63
2018-11-25T06:20:12.817Z,22.50
2018-11-25T06:22:18.341Z,23.60
2018-11-25T06:24:22.637Z,22.43
2018-11-25T06:26:26.844Z,24.23
2018-11-25T06:28:31.185Z,24.30
2018-11-25T06:30:35.707Z,24.20
2018-11-25T06:32:41.416Z,24.93
2018-11-25T06:34:45.743Z,24.47
2018-11-25T06:36:50.226Z,23.60
2018-11-25T06:38:54.984Z,25.63
2018-11-25T06:40:59.803Z,26.97
2018-11-25T06:43:04.098Z,26.67
2018-11-25T06:45:18.798Z,27.17
2018-11-25T06:47:23.090Z,26.57
2018-11-25T06:49:27.611Z,27.47
2018-11-25T06:51:32.165Z,26.57
2018-11-25T06:53:36.584Z,26.53
2018-11-25T06:55:40.973Z,25.90
2018-11-25T06:57:45.421Z,25.80
2018-11-25T06:59:50.589Z,25.10
2018-11-25T07:01:55.437Z,24.03
2018-11-25T07:04:00.043Z,25.03
2018-11-25T07:06:04.649Z,26.20
2018-11-25T07:08:08.938Z,25.80
2018-11-25T07:10:16.195Z,25.40
2018-11-25T07:12:20.630Z,25.60
2018-11-25T07:14:25.072Z,23.43
2018-11-25T07:16:29.661Z,23.57
2018-11-25T07:18:33.951Z,23.13
2018-11-25T07:20:38.332Z,22.23
2018-11-25T07:22:42.958Z,25.20
2018-11-25T07:24:47.037Z,26.40
2018-11-25T07:26:51.455Z,28.53
2018-11-25T07:28:55.779Z,27.57
2018-11-25T07:31:00.088Z,27.40
2018-11-25T07:33:04.436Z,29.90
2018-11-25T07:35:08.898Z,29.00
2018-11-25T07:37:13.250Z,29.70
2018-11-25T07:39:17.747Z,31.13
2018-11-25T07:41:22.120Z,32.80
2018-11-25T07:43:26.467Z,34.80
2018-11-25T07:45:31.015Z,31.97
2018-11-25T07:47:35.421Z,34.37
2018-11-25T07:49:39.959Z,33.17
2018-11-25T07:51:48.119Z,34.77
2018-11-25T07:53:52.715Z,34.47
2018-11-25T07:55:57.192Z,32.40
2018-11-25T07:58:01.628Z,33.63
2018-11-25T08:00:08.326Z,36.37
2018-11-25T08:02:12.792Z,36.83
2018-11-25T08:04:17.231Z,34.63
2018-11-25T08:06:21.833Z,34.20
2018-11-25T08:08:26.261Z,32.30
2018-11-25T08:10:30.771Z,32.53
2018-11-25T08:12:35.221Z,32.70
2018-11-25T08:14:39.530Z,32.63
2018-11-25T08:16:43.997Z,33.97
2018-11-25T08:18:48.361Z,34.80
2018-11-25T08:20:52.699Z,33.43
2018-11-25T08:22:57.092Z,33.50
2018-11-25T08:25:01.439Z,34.40
2018-11-25T08:27:06.107Z,31.43
2018-11-25T08:29:10.523Z,36.73
2018-11-25T08:31:14.986Z,32.57
2018-11-25T08:33:19.260Z,31.90
2018-11-25T08:35:23.569Z,30.53
2018-11-25T08:37:27.886Z,30.57
2018-11-25T08:39:32.288Z,30.27
2018-11-25T08:41:37.144Z,30.27
2018-11-25T08:43:41.718Z,29.10
2018-11-25T08:45:46.061Z,28.27
2018-11-25T08:47:50.677Z,27.10
2018-11-25T08:49:55.037Z,25.13
2018-11-25T08:51:59.472Z,26.80
2018-11-25T08:54:03.843Z,26.87
2018-11-25T08:56:08.220Z,27.00
2018-11-25T08:58:16.657Z,26.33
2018-11-25T09:00:23.710Z,28.73
2018-11-25T09:02:28.061Z,27.37
2018-11-25T09:04:32.566Z,27.17
2018-11-25T09:06:36.875Z,25.50
2018-11-25T09:08:41.112Z,26.50
2018-11-25T09:10:45.636Z,27.20
2018-11-25T09:12:55.854Z,29.27
2018-11-25T09:14:56.504Z,27.00
2018-11-25T09:17:00.895Z,28.30
2018-11-25T09:19:05.415Z,27.17
2018-11-25T09:21:09.851Z,27.43
2018-11-25T09:23:14.271Z,28.70
2018-11-25T09:25:19.942Z,28.30
2018-11-25T09:27:24.209Z,28.63
2018-11-25T09:29:28.661Z,31.00
2018-11-25T09:31:32.949Z,30.00
2018-11-25T09:33:37.576Z,31.33
2018-11-25T09:35:44.250Z,30.90
2018-11-25T09:37:48.599Z,31.70
2018-11-25T09:39:52.973Z,32.37
2018-11-25T09:41:57.603Z,32.40
2018-11-25T09:44:02.027Z,33.53
2018-11-25T09:46:06.568Z,33.97
2018-11-25T09:48:11.527Z,34.57
2018-11-25T09:50:17.811Z,33.83
2018-11-25T09:52:22.076Z,34.53
2018-11-25T09:54:26.584Z,34.07
2018-11-25T09:56:30.950Z,34.37
2018-11-25T09:58:35.468Z,35.17
2018-11-25T10:00:40.263Z,37.67
2018-11-25T10:02:44.748Z,34.57
2018-11-25T10:04:49.305Z,34.83
2018-11-25T10:06:54.103Z,32.87
2018-11-25T10:08:58.577Z,32.73
2018-11-25T10:11:02.993Z,34.20
2018-11-25T10:13:07.753Z,30.67
2018-11-25T10:15:13.301Z,32.53
2018-11-25T10:17:18.087Z,32.40
2018-11-25T10:19:22.702Z,30.33
2018-11-25T10:21:27.089Z,31.03
2018-11-25T10:23:31.551Z,30.90
2018-11-25T10:25:35.984Z,31.20
2018-11-25T10:27:40.414Z,31.10
2018-11-25T10:29:44.741Z,30.70
2018-11-25T10:31:49.380Z,29.67
2018-11-25T10:33:53.870Z,32.57
2018-11-25T10:35:58.540Z,30.97
2018-11-25T10:38:02.935Z,29.03
2018-11-25T10:40:10.907Z,33.30
2018-11-25T10:42:15.149Z,33.07
2018-11-25T10:44:19.714Z,34.90
2018-11-25T10:46:23.979Z,37.37
2018-11-25T10:48:28.255Z,36.23
2018-11-25T10:50:32.648Z,37.70
2018-11-25T10:52:37.326Z,38.07
2018-11-25T10:54:42.149Z,38.13
2018-11-25T10:56:46.787Z,34.17
2018-11-25T10:58:51.418Z,36.80
2018-11-25T11:01:00.071Z,37.20
2018-11-25T11:03:09.886Z,34.93
2018-11-25T11:05:19.459Z,35.73
2018-11-25T11:07:28.154Z,34.23
2018-11-25T11:09:32.833Z,34.57
2018-11-25T11:11:37.253Z,33.93
2018-11-25T11:13:41.544Z,31.63
2018-11-25T11:15:45.944Z,32.23
2018-11-25T11:17:50.573Z,32.47
2018-11-25T11:19:55.042Z,32.53
2018-11-25T11:21:59.426Z,33.30
2018-11-25T11:24:04.009Z,32.73
2018-11-25T11:26:22.157Z,32.37
2018-11-25T11:28:26.553Z,30.73
2018-11-25T11:30:31.006Z,33.53
2018-11-25T11:32:35.351Z,30.33
2018-11-25T11:34:42.072Z,30.53
2018-11-25T11:36:46.621Z,30.93
2018-11-25T11:39:00.853Z,33.20
2018-11-25T11:41:05.394Z,33.97
2018-11-25T11:43:09.822Z,33.20
2018-11-25T11:45:15.268Z,31.60
2018-11-25T11:47:19.548Z,27.57
2018-11-25T11:49:24.130Z,30.33
2018-11-25T11:51:28.629Z,27.97
2018-11-25T11:53:33.034Z,29.80
2018-11-25T11:55:37.697Z,31.33
2018-11-25T11:57:42.809Z,31.27
2018-11-25T11:59:47.174Z,29.03
2018-11-25T12:01:51.589Z,29.43
2018-11-25T12:03:56.122Z,30.47
2018-11-25T12:06:00.772Z,34.10
2018-11-25T12:08:05.031Z,34.83
2018-11-25T12:10:13.287Z,31.30
2018-11-25T12:12:18.839Z,32.50
2018-11-25T12:14:23.322Z,32.70
2018-11-25T12:16:27.670Z,31.10
2018-11-25T12:18:32.175Z,31.77
2018-11-25T12:20:36.766Z,27.60
2018-11-25T12:22:41.510Z,27.10
2018-11-25T12:24:46.114Z,28.77
2018-11-25T12:26:51.584Z,25.23
2018-11-25T12:28:55.927Z,28.50
2018-11-25T12:31:00.514Z,26.20
2018-11-25T12:33:05.145Z,28.07
2018-11-25T12:35:11.637Z,27.13
2018-11-25T12:37:16.108Z,28.47
2018-11-25T12:39:20.473Z,26.63
2018-11-25T12:41:24.749Z,26.27
2018-11-25T12:43:29.209Z,31.07
2018-11-25T12:45:34.705Z,27.90
2018-11-25T12:47:39.460Z,32.80
2018-11-25T12:49:43.925Z,30.30
2018-11-25T12:51:48.352Z,28.50
2018-11-25T12:53:52.700Z,26.40
2018-11-25T12:55:56.891Z,26.77
2018-11-25T12:58:01.256Z,28.63
2018-11-25T13:00:40.772Z,30.00
2018-11-25T13:02:45.061Z,26.63
2018-11-25T13:04:49.790Z,28.17
2018-11-25T13:06:54.193Z,28.60
2018-11-25T13:08:58.606Z,27.50
2018-11-25T13:11:03.124Z,28.13
2018-11-25T13:13:08.781Z,26.60
2018-11-25T13:15:13.327Z,26.53
2018-11-25T13:17:17.735Z,27.67
2018-11-25T13:19:22.023Z,26.40
2018-11-25T13:21:27.444Z,26.50
2018-11-25T13:23:31.713Z,26.53
2018-11-25T13:25:36.294Z,26.87
2018-11-25T13:27:41.161Z,25.37
2018-11-25T13:29:45.892Z,29.77
2018-11-25T13:31:50.556Z,25.90
2018-11-25T13:33:54.978Z,27.47
2018-11-25T13:35:59.454Z,26.20
2018-11-25T13:38:03.796Z,27.43
2018-11-25T13:40:11.181Z,26.00
2018-11-25T13:42:16.871Z,26.53
2018-11-25T13:44:21.277Z,25.07
2018-11-25T13:46:25.679Z,23.57
2018-11-25T13:48:30.440Z,25.23
2018-11-25T13:50:34.840Z,24.80
2018-11-25T13:52:39.276Z,25.13
2018-11-25T13:54:43.443Z,26.83
2018-11-25T13:56:47.789Z,25.73
2018-11-25T13:58:52.251Z,25.77
2018-11-25T14:00:59.365Z,28.20
2018-11-25T14:03:04.752Z,27.80
2018-11-25T14:05:09.633Z,28.37
2018-11-25T14:07:14.150Z,29.57
2018-11-25T14:09:18.708Z,29.60
2018-11-25T14:11:23.329Z,28.00
2018-11-25T14:13:27.829Z,31.00
2018-11-25T14:15:32.053Z,28.90
2018-11-25T14:17:36.583Z,29.70
2018-11-25T14:19:40.892Z,31.90
2018-11-25T14:21:45.408Z,31.10
2018-11-25T14:23:49.717Z,32.80
2018-11-25T14:25:54.229Z,32.40
2018-11-25T14:28:09.238Z,34.40
2018-11-25T14:30:22.546Z,32.20
2018-11-25T14:32:26.849Z,31.90
2018-11-25T14:34:31.163Z,34.23
2018-11-25T14:36:35.471Z,33.23
2018-11-25T14:38:39.891Z,31.37
2018-11-25T14:40:44.363Z,32.60
2018-11-25T14:42:48.660Z,33.03
2018-11-25T14:44:52.903Z,30.23
2018-11-25T14:46:57.396Z,32.57
2018-11-25T14:49:02.064Z,31.63
2018-11-25T14:51:06.266Z,33.20
2018-11-25T14:53:10.924Z,32.40
2018-11-25T14:55:15.997Z,33.23
2018-11-25T14:57:20.383Z,33.57
2018-11-25T14:59:24.756Z,33.43
2018-11-25T15:01:29.295Z,33.00
2018-11-25T15:03:33.561Z,38.53
2018-11-25T15:05:42.205Z,33.53
2018-11-25T15:07:46.561Z,33.23
2018-11-25T15:09:51.045Z,34.10
2018-11-25T15:11:56.225Z,37.67
2018-11-25T15:14:00.605Z,37.10
2018-11-25T15:16:06.923Z,35.47
2018-11-25T15:18:11.515Z,35.97
2018-11-25T15:20:16.629Z,35.40
2018-11-25T15:22:20.618Z,35.63
2018-11-25T15:24:25.166Z,37.37
2018-11-25T15:26:29.581Z,37.03
2018-11-25T15:28:34.302Z,35.73
2018-11-25T15:30:39.098Z,37.10
2018-11-25T15:32:43.763Z,37.40
2018-11-25T15:34:48.235Z,35.37
2018-11-25T15:36:52.707Z,37.37
2018-11-25T15:38:57.087Z,35.63
2018-11-25T15:41:01.405Z,39.50
2018-11-25T15:43:06.233Z,38.80
2018-11-25T15:45:11.454Z,39.00
2018-11-25T15:47:15.886Z,37.43
2018-11-25T15:49:20.299Z,38.23
2018-11-25T15:51:24.712Z,37.03
2018-11-25T15:53:29.244Z,38.70
2018-11-25T15:55:33.665Z,38.77
2018-11-25T15:57:38.075Z,38.60
2018-11-25T15:59:42.332Z,41.90
2018-11-25T16:01:46.711Z,40.10
2018-11-25T16:03:51.039Z,38.70
2018-11-25T16:06:00.407Z,39.57
2018-11-25T16:08:04.780Z,38.10
2018-11-25T16:10:10.844Z,40.57
2018-11-25T16:12:15.369Z,41.60
2018-11-25T16:14:19.773Z,40.43
2018-11-25T16:16:23.925Z,39.47
2018-11-25T16:18:28.195Z,41.30
2018-11-25T16:20:32.779Z,41.10
2018-11-25T16:22:37.297Z,41.07
2018-11-25T16:24:41.665Z,40.03
2018-11-25T16:26:45.969Z,39.43
2018-11-25T16:28:52.247Z,40.73
2018-11-25T16:30:56.601Z,40.43
2018-11-25T16:33:00.981Z,40.70
2018-11-25T16:35:05.701Z,39.97
2018-11-25T16:37:10.198Z,41.90
2018-11-25T16:39:14.609Z,39.30
2018-11-25T16:41:18.802Z,39.60
2018-11-25T16:43:23.503Z,39.17
2018-11-25T16:45:28.271Z,38.10
2018-11-25T16:47:33.705Z,41.27
2018-11-25T16:49:38.412Z,39.67
2018-11-25T16:51:44.100Z,39.33
2018-11-25T16:53:48.289Z,39.10
2018-11-25T16:55:52.679Z,40.87
2018-11-25T16:57:56.898Z,40.63
2018-11-25T17:00:01.433Z,39.87
2018-11-25T17:02:05.984Z,40.00
2018-11-25T17:04:10.311Z,41.37
2018-11-25T17:06:14.977Z,41.53
2018-11-25T17:08:37.392Z,42.40
2018-11-25T17:10:41.872Z,41.87
2018-11-25T17:12:46.169Z,45.13
2018-11-25T17:14:50.566Z,43.00
2018-11-25T17:16:54.846Z,42.80
2018-11-25T17:18:59.176Z,43.10
2018-11-25T17:21:04.768Z,43.63
2018-11-25T17:23:09.177Z,44.77
2018-11-25T17:25:14.481Z,39.93
2018-11-25T17:27:18.952Z,44.07
2018-11-25T17:29:23.554Z,40.90
2018-11-25T17:31:27.894Z,41.43
2018-11-25T17:33:38.719Z,41.80
2018-11-25T17:35:43.738Z,42.90
2018-11-25T17:37:48.556Z,46.47
2018-11-25T17:39:53.031Z,43.40
2018-11-25T17:41:57.684Z,41.83
2018-11-25T17:44:02.148Z,41.57
2018-11-25T17:46:07.000Z,41.57
2018-11-25T17:48:11.524Z,42.93
2018-11-25T17:50:19.382Z,41.40
2018-11-25T17:52:23.719Z,40.40
2018-11-25T17:54:28.138Z,40.27
2018-11-25T17:56:32.767Z,41.17
2018-11-25T17:58:37.182Z,43.03
2018-11-25T18:00:45.181Z,40.27
2018-11-25T18:02:49.682Z,44.07
2018-11-25T18:04:54.111Z,43.63
2018-11-25T18:06:58.602Z,43.40
2018-11-25T18:09:02.997Z,42.00
2018-11-25T18:11:07.514Z,41.67
2018-11-25T18:13:11.830Z,43.00
2018-11-25T18:15:17.814Z,44.47
2018-11-25T18:17:22.130Z,40.40
2018-11-25T18:19:26.606Z,47.13
2018-11-25T18:21:31.032Z,41.33
2018-11-25T18:23:35.473Z,43.03
2018-11-25T18:25:39.817Z,39.40
2018-11-25T18:27:44.408Z,39.80
2018-11-25T18:29:48.918Z,38.60
2018-11-25T18:31:53.390Z,36.80
2018-11-25T18:33:57.978Z,38.80
2018-11-25T18:36:02.209Z,36.30
2018-11-25T18:38:06.885Z,37.67
2018-11-25T18:40:13.232Z,35.57
2018-11-25T18:42:17.719Z,36.60
2018-11-25T18:44:22.321Z,37.77
2018-11-25T18:46:26.756Z,34.93
2018-11-25T18:48:32.197Z,35.77
2018-11-25T18:50:36.465Z,35.80
2018-11-25T18:52:40.926Z,34.80
2018-11-25T18:54:47.029Z,35.80
2018-11-25T18:56:51.365Z,34.47
2018-11-25T18:58:55.874Z,34.83
2018-11-25T19:01:14.938Z,36.03
2018-11-25T19:03:19.298Z,35.07
2018-11-25T19:05:24.134Z,35.70
2018-11-25T19:07:28.410Z,35.60
2018-11-25T19:09:32.884Z,33.93
2018-11-25T19:11:37.372Z,35.57
2018-11-25T19:13:41.745Z,35.00
2018-11-25T19:15:46.290Z,36.23
2018-11-25T19:17:50.590Z,33.70
2018-11-25T19:19:54.729Z,42.37
2018-11-25T19:21:59.146Z,37.50
2018-11-25T19:24:03.391Z,35.37
2018-11-25T19:26:08.097Z,34.50
2018-11-25T19:28:12.301Z,36.73
2018-11-25T19:30:16.727Z,36.40
2018-11-25T19:32:21.118Z,35.53
2018-11-25T19:34:25.653Z,33.83
2018-11-25T19:36:29.943Z,35.23
2018-11-25T19:38:34.263Z,34.03
2018-11-25T19:40:39.149Z,34.60
2018-11-25T19:42:43.848Z,33.70
2018-11-25T19:44:48.249Z,36.60
2018-11-25T19:46:53.195Z,34.40
2018-11-25T19:48:57.574Z,34.10
2018-11-25T19:51:02.205Z,34.23
2018-11-25T19:53:08.531Z,34.40
2018-11-25T19:55:13.028Z,33.20
2018-11-25T19:57:17.621Z,32.03
2018-11-25T19:59:22.118Z,33.77
2018-11-25T20:01:26.427Z,32.47
2018-11-25T20:03:30.934Z,32.20
2018-11-25T20:05:35.240Z,33.90
2018-11-25T20:07:39.801Z,34.07
2018-11-25T20:09:44.122Z,33.20
2018-11-25T20:11:48.841Z,32.90
2018-11-25T20:13:53.251Z,34.10
2018-11-25T20:16:02.946Z,34.50
2018-11-25T20:18:08.651Z,35.40
2018-11-25T20:20:16.111Z,35.53
2018-11-25T20:22:24.946Z,35.40
2018-11-25T20:24:29.260Z,36.37
2018-11-25T20:26:33.953Z,35.70
2018-11-25T20:28:38.363Z,37.13
2018-11-25T20:30:42.754Z,34.67
2018-11-25T20:32:52.208Z,37.70
2018-11-25T20:34:56.778Z,35.10
2018-11-25T20:37:01.300Z,35.30
2018-11-25T20:39:44.883Z,35.00
2018-11-25T20:41:49.588Z,35.77
2018-11-25T20:43:53.965Z,37.40
2018-11-25T20:46:03.704Z,37.47
2018-11-25T20:48:08.305Z,37.60
2018-11-25T20:50:12.819Z,37.87
2018-11-25T20:52:22.551Z,38.20
2018-11-25T20:54:26.990Z,38.60
2018-11-25T20:56:31.896Z,37.47
2018-11-25T20:58:36.823Z,35.43
2018-11-25T21:00:42.662Z,36.30
2018-11-25T21:02:47.438Z,35.77
2018-11-25T21:04:52.115Z,38.00
2018-11-25T21:06:56.593Z,35.87
2018-11-25T21:09:01.301Z,36.57
2018-11-25T21:11:06.102Z,38.40
2018-11-25T21:13:10.767Z,35.70
2018-11-25T21:15:15.280Z,39.33
2018-11-25T21:17:20.109Z,36.90
2018-11-25T21:19:24.489Z,33.30
2018-11-25T21:21:28.927Z,37.17
2018-11-25T21:23:33.460Z,37.80
2018-11-25T21:25:37.768Z,38.00
2018-11-25T21:27:43.440Z,36.70
2018-11-25T21:29:47.955Z,36.83
2018-11-25T21:31:52.349Z,36.40
2018-11-25T21:33:57.074Z,37.87
2018-11-25T21:36:01.518Z,36.37
2018-11-25T21:38:05.805Z,37.50
2018-11-25T21:40:15.436Z,36.30
2018-11-25T21:42:19.930Z,35.27
2018-11-25T21:44:24.368Z,34.27
2018-11-25T21:46:28.652Z,37.17
2018-11-25T21:48:33.089Z,38.53
2018-11-25T21:50:37.434Z,36.60
2018-11-25T21:52:41.854Z,39.30
2018-11-25T21:54:46.234Z,36.80
2018-11-25T21:56:50.693Z,36.87
2018-11-25T21:58:55.094Z,35.70
2018-11-25T22:00:59.450Z,34.00
2018-11-25T22:03:03.815Z,35.47
2018-11-25T22:05:08.774Z,37.67
2018-11-25T22:07:13.378Z,38.27
2018-11-25T22:09:17.965Z,35.90
2018-11-25T22:11:22.307Z,36.90
2018-11-25T22:13:26.593Z,38.73
2018-11-25T22:15:31.041Z,37.67
2018-11-25T22:17:35.377Z,36.53
2018-11-25T22:19:39.756Z,37.20
2018-11-25T22:21:44.050Z,36.93
2018-11-25T22:23:48.611Z,35.90
2018-11-25T22:25:53.141Z,35.40
2018-11-25T22:27:57.742Z,39.37
2018-11-25T22:30:02.190Z,38.53
2018-11-25T22:32:06.484Z,35.53
2018-11-25T22:34:10.689Z,36.63
2018-11-25T22:36:15.029Z,37.53
2018-11-25T22:38:19.365Z,37.27
2018-11-25T22:40:23.954Z,36.00
2018-11-25T22:42:28.356Z,36.33
2018-11-25T22:44:32.636Z,36.97
2018-11-25T22:46:37.008Z,37.40
2018-11-25T22:48:41.201Z,37.80
2018-11-25T22:50:45.499Z,34.93
2018-11-25T22:52:50.342Z,38.03
2018-11-25T22:54:54.645Z,35.73
2018-11-25T22:56:59.069Z,37.13
2018-11-25T22:59:03.494Z,38.80
2018-11-25T23:01:08.023Z,39.00
2018-11-25T23:03:12.727Z,38.10
2018-11-25T23:05:28.172Z,38.70
2018-11-25T23:07:32.587Z,37.80
2018-11-25T23:09:37.041Z,38.50
2018-11-25T23:11:41.371Z,39.53
2018-11-25T23:13:45.633Z,38.73
2018-11-25T23:15:49.994Z,37.60
2018-11-25T23:17:54.494Z,41.43
2018-11-25T23:19:59.045Z,38.50
2018-11-25T23:22:03.355Z,37.40
2018-11-25T23:24:07.877Z,40.57
2018-11-25T23:26:12.085Z,38.67
2018-11-25T23:28:16.491Z,38.07
2018-11-25T23:30:20.922Z,38.67
2018-11-25T23:32:25.463Z,40.17
2018-11-25T23:34:29.956Z,38.07
2018-11-25T23:36:34.285Z,39.27
2018-11-25T23:38:38.412Z,35.30
2018-11-25T23:40:42.759Z,38.80
2018-11-25T23:42:47.370Z,37.70
2018-11-25T23:44:51.811Z,37.47
2018-11-25T23:46:56.335Z,37.50
2018-11-25T23:49:00.787Z,39.00
2018-11-25T23:51:05.655Z,38.53
2018-11-25T23:53:10.043Z,38.53
2018-11-25T23:55:15.260Z,40.40
2018-11-25T23:57:19.537Z,38.93
2018-11-25T23:59:24.007Z,38.77
